»·PEaware :: BRAVE15 KEND-KEND

BRAVE15 :: KEND-KEND

FLIGHT INFORMATION

Flight Status: Arrived
Operator: Unknown
More flights by this operator :: More flights under this callsign
Pilot: Christopher A. (21983)
Aircraft: BEECH AIRCRAFT T-6A TEXAN
(TEX2)
More flights by this aircraft type
Origin: KEND Vance AFB
United States
Destination: KEND Vance AFB
United States
More flights between these airports :: More routes between these airports
Route: +END9 PLANS
File this flight plan on PilotEdge
Remarks:
Altitude:
(Current/Filed)
0ft
Speed:
(Current/Filed)
0kts
Departed: 26-Mar-20 10:17 AM
Arrived: 26-Mar-20 11:01 AM
Distance/Time
Traveled:
0nm/0:44
Distance/Time
To Go:
Arrived

Flight Plot

Page will automatically refresh every two minutes.


Map Options




Map Legend


Flown Route
Filed Route
Departure Airport
Arrival Airport
Navaid (VOR, NDB)
Fix

Horizontal Profiles

Position Reports

Time Latitude Longitude Heading Altitude Ground
Speed
26-Mar-20 10:08 36.346908 -97.910011 178 1279ft 0kts
26-Mar-20 10:09 36.346877 -97.910003 158 1279ft 1kts
26-Mar-20 10:10 36.346854 -97.909981 173 1279ft 0kts
26-Mar-20 10:11 36.346855 -97.909982 174 1279ft 0kts
26-Mar-20 10:12 36.346855 -97.909982 174 1279ft 0kts
26-Mar-20 10:13 36.346855 -97.909982 174 1279ft 0kts
26-Mar-20 10:14 36.346804 -97.910008 229 1279ft 0kts
26-Mar-20 10:15 36.346843 -97.910618 284 1279ft 4kts
26-Mar-20 10:16 36.344172 -97.911069 180 1281ft 81kts
26-Mar-20 10:17 36.301297 -97.911862 182 2959ft 177kts
26-Mar-20 10:18 36.251861 -97.909172 182 5088ft 173kts
26-Mar-20 10:19 36.247864 -97.864385 12 4973ft 230kts
26-Mar-20 10:20 36.312947 -97.878059 341 5026ft 249kts
26-Mar-20 10:21 36.377093 -97.907867 332 4984ft 250kts
26-Mar-20 10:22 36.446613 -97.908823 0 4950ft 253kts
26-Mar-20 10:23 36.516659 -97.905482 358 5062ft 247kts
26-Mar-20 10:24 36.582298 -97.903570 359 6036ft 247kts
26-Mar-20 10:25 36.612030 -97.966339 286 6047ft 247kts
26-Mar-20 10:26 36.635023 -98.045117 291 5999ft 232kts
26-Mar-20 10:27 36.655514 -98.116086 288 5593ft 191kts
26-Mar-20 10:28 36.669218 -98.177842 275 4414ft 175kts
26-Mar-20 10:29 36.677898 -98.238061 287 4152ft 190kts
26-Mar-20 10:30 36.695999 -98.303489 305 2697ft 207kts
26-Mar-20 10:31 36.725662 -98.354709 355 2058ft 179kts
26-Mar-20 10:32 36.775230 -98.350426 3 2039ft 173kts
26-Mar-20 10:33 36.795368 -98.358314 178 1210ft 100kts
26-Mar-20 10:34 36.780735 -98.350207 4 1893ft 180kts
26-Mar-20 10:35 36.788995 -98.358355 178 1206ft 100kts
26-Mar-20 10:36 36.791807 -98.351693 7 1971ft 190kts
26-Mar-20 10:37 36.788320 -98.358349 179 1264ft 104kts
26-Mar-20 10:38 36.784861 -98.343376 9 2954ft 205kts
26-Mar-20 10:39 36.811211 -98.355274 216 1935ft 135kts
26-Mar-20 10:40 36.781037 -98.358147 181 1459ft 118kts
26-Mar-20 10:41 36.737020 -98.356252 178 3772ft 179kts
26-Mar-20 10:42 36.686862 -98.337708 108 5321ft 249kts
26-Mar-20 10:43 36.689970 -98.254383 101 5669ft 228kts
26-Mar-20 10:44 36.677890 -98.186605 86 6025ft 187kts
26-Mar-20 10:45 36.708337 -98.145870 12 5902ft 192kts
26-Mar-20 10:46 36.760537 -98.129947 15 6008ft 197kts
26-Mar-20 10:47 36.750605 -98.097751 156 5915ft 197kts
26-Mar-20 10:48 36.697656 -98.067715 155 6080ft 226kts
26-Mar-20 10:49 36.669548 -98.001997 100 6328ft 239kts
26-Mar-20 10:50 36.670208 -97.918540 90 6012ft 252kts
26-Mar-20 10:51 36.663673 -97.834203 105 6079ft 240kts
26-Mar-20 10:52 36.608068 -97.805335 177 4022ft 234kts
26-Mar-20 10:53 36.549179 -97.802660 212 2928ft 184kts
26-Mar-20 10:54 36.510877 -97.838874 219 2286ft 185kts
26-Mar-20 10:55 36.473816 -97.889840 235 2353ft 214kts
26-Mar-20 10:56 36.425893 -97.908047 184 2338ft 194kts
26-Mar-20 10:57 36.370213 -97.909352 186 2312ft 202kts
26-Mar-20 10:58 36.346458 -97.897169 1 2420ft 134kts
26-Mar-20 10:59 36.346025 -97.910967 178 1295ft 91kts
26-Mar-20 11:00 36.333605 -97.910393 65 1291ft 5kts

Navigation Log

Ident Type
Flight plan parsing failed, navigation log unavailable